sensor_id;sensor_type;location;lat;lon;timestamp;P1;durP1;ratioP1;P2;durP2;ratioP2
68247;SDS011;55064;49.636;12.164;2022-10-18T00:02:20;14.70;;;6.93;;
68247;SDS011;55064;49.636;12.164;2022-10-18T00:04:45;13.40;;;7.03;;
68247;SDS011;55064;49.636;12.164;2022-10-18T00:07:11;14.30;;;7.03;;
68247;SDS011;55064;49.636;12.164;2022-10-18T00:09:38;16.17;;;6.75;;
68247;SDS011;55064;49.636;12.164;2022-10-18T00:12:06;13.33;;;6.83;;
68247;SDS011;55064;49.636;12.164;2022-10-18T00:14:34;12.93;;;6.65;;
68247;SDS011;55064;49.636;12.164;2022-10-18T00:17:01;14.50;;;6.45;;
68247;SDS011;55064;49.636;12.164;2022-10-18T00:19:28;14.02;;;6.68;;
68247;SDS011;55064;49.636;12.164;2022-10-18T00:21:54;13.03;;;6.43;;
68247;SDS011;55064;49.636;12.164;2022-10-18T00:24:19;14.27;;;6.53;;
68247;SDS011;55064;49.636;12.164;2022-10-18T00:26:46;17.17;;;6.40;;
68247;SDS011;55064;49.636;12.164;2022-10-18T00:29:14;13.73;;;6.30;;
68247;SDS011;55064;49.636;12.164;2022-10-18T00:31:40;13.77;;;6.03;;
68247;SDS011;55064;49.636;12.164;2022-10-18T00:34:12;13.73;;;6.55;;
68247;SDS011;55064;49.636;12.164;2022-10-18T00:36:39;14.77;;;6.40;;
68247;SDS011;55064;49.636;12.164;2022-10-18T00:39:05;12.43;;;6.20;;
68247;SDS011;55064;49.636;12.164;2022-10-18T00:41:32;13.40;;;6.50;;
68247;SDS011;55064;49.636;12.164;2022-10-18T00:44:02;20.05;;;5.82;;
68247;SDS011;55064;49.636;12.164;2022-10-18T00:46:32;9.98;;;4.93;;
68247;SDS011;55064;49.636;12.164;2022-10-18T00:49:00;9.70;;;5.03;;
68247;SDS011;55064;49.636;12.164;2022-10-18T00:51:31;9.67;;;4.93;;
68247;SDS011;55064;49.636;12.164;2022-10-18T00:54:02;9.18;;;4.97;;
68247;SDS011;55064;49.636;12.164;2022-10-18T00:56:27;8.77;;;4.68;;
68247;SDS011;55064;49.636;12.164;2022-10-18T00:58:56;9.03;;;4.60;;
68247;SDS011;55064;49.636;12.164;2022-10-18T01:01:24;7.93;;;4.13;;
68247;SDS011;55064;49.636;12.164;2022-10-18T01:03:49;9.87;;;5.20;;
68247;SDS011;55064;49.636;12.164;2022-10-18T01:06:19;10.00;;;4.88;;
68247;SDS011;55064;49.636;12.164;2022-10-18T01:16:43;11.10;;;5.83;;
68247;SDS011;55064;49.636;12.164;2022-10-18T01:30:24;16.73;;;7.07;;
68247;SDS011;55064;49.636;12.164;2022-10-18T01:33:12;14.30;;;7.28;;
68247;SDS011;55064;49.636;12.164;2022-10-18T01:35:43;19.90;;;7.35;;
68247;SDS011;55064;49.636;12.164;2022-10-18T01:38:14;14.70;;;7.22;;
68247;SDS011;55064;49.636;12.164;2022-10-18T01:40:42;17.50;;;6.80;;
68247;SDS011;55064;49.636;12.164;2022-10-18T01:43:13;16.13;;;7.20;;
68247;SDS011;55064;49.636;12.164;2022-10-18T01:45:42;16.33;;;7.47;;
68247;SDS011;55064;49.636;12.164;2022-10-18T01:48:08;18.83;;;7.85;;
68247;SDS011;55064;49.636;12.164;2022-10-18T01:50:34;18.92;;;7.35;;
68247;SDS011;55064;49.636;12.164;2022-10-18T01:53:02;16.85;;;8.35;;
68247;SDS011;55064;49.636;12.164;2022-10-18T01:55:32;18.50;;;7.43;;
68247;SDS011;55064;49.636;12.164;2022-10-18T01:58:07;19.55;;;8.70;;
68247;SDS011;55064;49.636;12.164;2022-10-18T02:00:46;24.80;;;8.30;;
68247;SDS011;55064;49.636;12.164;2022-10-18T02:03:24;19.33;;;8.60;;
68247;SDS011;55064;49.636;12.164;2022-10-18T02:06:12;19.90;;;8.43;;
68247;SDS011;55064;49.636;12.164;2022-10-18T02:08:45;19.35;;;8.48;;
68247;SDS011;55064;49.636;12.164;2022-10-18T02:11:18;16.83;;;7.65;;
68247;SDS011;55064;49.636;12.164;2022-10-18T02:16:25;16.17;;;7.70;;
68247;SDS011;55064;49.636;12.164;2022-10-18T02:19:08;18.08;;;7.20;;
68247;SDS011;55064;49.636;12.164;2022-10-18T02:21:41;16.02;;;7.25;;
68247;SDS011;55064;49.636;12.164;2022-10-18T02:24:11;16.42;;;7.53;;
68247;SDS011;55064;49.636;12.164;2022-10-18T02:26:42;18.27;;;7.53;;
68247;SDS011;55064;49.636;12.164;2022-10-18T02:29:12;15.10;;;6.57;;
68247;SDS011;55064;49.636;12.164;2022-10-18T02:31:45;15.90;;;6.60;;
68247;SDS011;55064;49.636;12.164;2022-10-18T02:34:23;15.63;;;7.10;;
68247;SDS011;55064;49.636;12.164;2022-10-18T02:36:59;13.38;;;5.97;;
68247;SDS011;55064;49.636;12.164;2022-10-18T02:42:02;12.15;;;6.00;;
68247;SDS011;55064;49.636;12.164;2022-10-18T02:44:34;12.02;;;5.25;;
68247;SDS011;55064;49.636;12.164;2022-10-18T02:47:01;9.90;;;4.70;;
68247;SDS011;55064;49.636;12.164;2022-10-18T02:49:30;10.40;;;4.70;;
68247;SDS011;55064;49.636;12.164;2022-10-18T02:51:57;9.82;;;4.80;;
68247;SDS011;55064;49.636;12.164;2022-10-18T02:54:25;12.00;;;5.03;;
68247;SDS011;55064;49.636;12.164;2022-10-18T02:56:50;10.00;;;5.07;;
68247;SDS011;55064;49.636;12.164;2022-10-18T02:59:16;12.20;;;5.37;;
68247;SDS011;55064;49.636;12.164;2022-10-18T03:01:44;11.00;;;5.43;;
68247;SDS011;55064;49.636;12.164;2022-10-18T03:04:12;12.77;;;5.90;;
68247;SDS011;55064;49.636;12.164;2022-10-18T03:06:39;12.43;;;6.38;;
68247;SDS011;55064;49.636;12.164;2022-10-18T03:09:08;13.52;;;6.75;;
68247;SDS011;55064;49.636;12.164;2022-10-18T03:11:33;15.47;;;6.90;;
68247;SDS011;55064;49.636;12.164;2022-10-18T03:13:59;16.13;;;7.80;;
68247;SDS011;55064;49.636;12.164;2022-10-18T03:16:24;18.57;;;7.30;;
68247;SDS011;55064;49.636;12.164;2022-10-18T03:18:50;14.40;;;7.30;;
68247;SDS011;55064;49.636;12.164;2022-10-18T03:21:17;15.98;;;7.45;;
68247;SDS011;55064;49.636;12.164;2022-10-18T03:23:45;17.73;;;7.28;;
68247;SDS011;55064;49.636;12.164;2022-10-18T03:26:16;15.40;;;7.10;;
68247;SDS011;55064;49.636;12.164;2022-10-18T03:28:41;19.60;;;7.18;;
68247;SDS011;55064;49.636;12.164;2022-10-18T03:31:06;24.07;;;7.97;;
68247;SDS011;55064;49.636;12.164;2022-10-18T03:33:32;18.15;;;7.45;;
68247;SDS011;55064;49.636;12.164;2022-10-18T03:35:58;18.60;;;7.90;;
68247;SDS011;55064;49.636;12.164;2022-10-18T03:38:26;19.58;;;8.52;;
68247;SDS011;55064;49.636;12.164;2022-10-18T03:40:53;18.30;;;7.57;;
68247;SDS011;55064;49.636;12.164;2022-10-18T03:43:22;20.60;;;7.87;;
68247;SDS011;55064;49.636;12.164;2022-10-18T03:45:50;21.52;;;8.43;;
68247;SDS011;55064;49.636;12.164;2022-10-18T03:48:18;19.95;;;8.90;;
68247;SDS011;55064;49.636;12.164;2022-10-18T03:50:43;19.63;;;7.97;;
68247;SDS011;55064;49.636;12.164;2022-10-18T03:53:11;17.25;;;7.03;;
68247;SDS011;55064;49.636;12.164;2022-10-18T03:55:37;21.57;;;7.80;;
68247;SDS011;55064;49.636;12.164;2022-10-18T03:58:07;18.25;;;8.05;;
68247;SDS011;55064;49.636;12.164;2022-10-18T04:00:32;21.67;;;7.50;;
68247;SDS011;55064;49.636;12.164;2022-10-18T04:02:58;20.70;;;8.07;;
68247;SDS011;55064;49.636;12.164;2022-10-18T04:05:26;19.27;;;8.07;;
68247;SDS011;55064;49.636;12.164;2022-10-18T04:07:56;19.25;;;8.00;;
68247;SDS011;55064;49.636;12.164;2022-10-18T04:10:22;17.43;;;7.73;;
68247;SDS011;55064;49.636;12.164;2022-10-18T04:12:48;21.13;;;7.90;;
68247;SDS011;55064;49.636;12.164;2022-10-18T04:15:15;16.00;;;6.60;;
68247;SDS011;55064;49.636;12.164;2022-10-18T04:17:41;14.95;;;7.18;;
68247;SDS011;55064;49.636;12.164;2022-10-18T04:20:06;14.57;;;7.30;;
68247;SDS011;55064;49.636;12.164;2022-10-18T04:22:32;16.95;;;7.00;;
68247;SDS011;55064;49.636;12.164;2022-10-18T04:24:58;16.17;;;7.03;;
68247;SDS011;55064;49.636;12.164;2022-10-18T04:27:25;16.33;;;7.28;;
68247;SDS011;55064;49.636;12.164;2022-10-18T04:29:56;15.98;;;7.45;;
68247;SDS011;55064;49.636;12.164;2022-10-18T04:32:23;17.17;;;7.70;;
68247;SDS011;55064;49.636;12.164;2022-10-18T04:34:53;19.17;;;7.65;;
68247;SDS011;55064;49.636;12.164;2022-10-18T04:37:18;17.42;;;7.88;;
68247;SDS011;55064;49.636;12.164;2022-10-18T04:39:44;16.37;;;7.20;;
68247;SDS011;55064;49.636;12.164;2022-10-18T04:42:12;16.00;;;7.68;;
68247;SDS011;55064;49.636;12.164;2022-10-18T04:44:38;16.67;;;7.63;;
68247;SDS011;55064;49.636;12.164;2022-10-18T04:47:03;16.13;;;7.93;;
68247;SDS011;55064;49.636;12.164;2022-10-18T04:49:28;19.20;;;7.57;;
68247;SDS011;55064;49.636;12.164;2022-10-18T04:51:54;18.50;;;7.57;;
68247;SDS011;55064;49.636;12.164;2022-10-18T04:54:19;18.20;;;7.67;;
68247;SDS011;55064;49.636;12.164;2022-10-18T04:56:45;18.37;;;7.90;;
68247;SDS011;55064;49.636;12.164;2022-10-18T04:59:13;21.15;;;8.63;;
68247;SDS011;55064;49.636;12.164;2022-10-18T05:01:41;18.25;;;8.27;;
68247;SDS011;55064;49.636;12.164;2022-10-18T05:04:09;18.90;;;8.45;;
68247;SDS011;55064;49.636;12.164;2022-10-18T05:06:39;19.83;;;8.47;;
68247;SDS011;55064;49.636;12.164;2022-10-18T05:09:04;17.60;;;7.50;;
68247;SDS011;55064;49.636;12.164;2022-10-18T05:11:30;19.20;;;7.70;;
68247;SDS011;55064;49.636;12.164;2022-10-18T05:13:57;23.13;;;8.70;;
68247;SDS011;55064;49.636;12.164;2022-10-18T05:16:23;18.07;;;7.57;;
68247;SDS011;55064;49.636;12.164;2022-10-18T05:18:48;17.53;;;7.60;;
68247;SDS011;55064;49.636;12.164;2022-10-18T05:21:13;21.37;;;8.77;;
68247;SDS011;55064;49.636;12.164;2022-10-18T05:23:39;24.00;;;9.13;;
68247;SDS011;55064;49.636;12.164;2022-10-18T05:26:07;18.43;;;7.90;;
68247;SDS011;55064;49.636;12.164;2022-10-18T05:28:35;19.05;;;7.70;;
68247;SDS011;55064;49.636;12.164;2022-10-18T05:31:05;20.80;;;9.77;;
68247;SDS011;55064;49.636;12.164;2022-10-18T05:33:36;21.08;;;7.13;;
68247;SDS011;55064;49.636;12.164;2022-10-18T05:36:01;18.20;;;6.83;;
68247;SDS011;55064;49.636;12.164;2022-10-18T05:38:29;26.92;;;10.10;;
68247;SDS011;55064;49.636;12.164;2022-10-18T05:41:02;20.60;;;10.43;;
68247;SDS011;55064;49.636;12.164;2022-10-18T05:43:33;17.17;;;8.63;;
68247;SDS011;55064;49.636;12.164;2022-10-18T05:46:01;18.95;;;8.10;;
68247;SDS011;55064;49.636;12.164;2022-10-18T05:48:26;17.38;;;9.13;;
68247;SDS011;55064;49.636;12.164;2022-10-18T05:50:56;22.00;;;10.95;;
68247;SDS011;55064;49.636;12.164;2022-10-18T05:53:24;18.33;;;10.30;;
68247;SDS011;55064;49.636;12.164;2022-10-18T05:55:53;15.57;;;8.48;;
68247;SDS011;55064;49.636;12.164;2022-10-18T05:58:18;15.90;;;8.32;;
68247;SDS011;55064;49.636;12.164;2022-10-18T06:00:46;13.55;;;7.50;;
68247;SDS011;55064;49.636;12.164;2022-10-18T06:03:16;13.52;;;6.85;;
68247;SDS011;55064;49.636;12.164;2022-10-18T06:05:42;16.07;;;8.20;;
68247;SDS011;55064;49.636;12.164;2022-10-18T06:08:12;14.82;;;8.43;;
68247;SDS011;55064;49.636;12.164;2022-10-18T06:10:39;15.85;;;7.65;;
68247;SDS011;55064;49.636;12.164;2022-10-18T06:13:05;11.80;;;6.50;;
68247;SDS011;55064;49.636;12.164;2022-10-18T06:15:30;15.73;;;7.40;;
68247;SDS011;55064;49.636;12.164;2022-10-18T06:17:58;14.95;;;8.30;;
68247;SDS011;55064;49.636;12.164;2022-10-18T06:20:29;16.13;;;7.75;;
68247;SDS011;55064;49.636;12.164;2022-10-18T06:22:57;16.65;;;8.20;;
68247;SDS011;55064;49.636;12.164;2022-10-18T06:25:22;14.83;;;7.90;;
68247;SDS011;55064;49.636;12.164;2022-10-18T06:27:51;15.98;;;8.05;;
68247;SDS011;55064;49.636;12.164;2022-10-18T06:30:18;15.83;;;7.67;;
68247;SDS011;55064;49.636;12.164;2022-10-18T06:32:44;16.08;;;7.90;;
68247;SDS011;55064;49.636;12.164;2022-10-18T06:35:14;13.90;;;7.20;;
68247;SDS011;55064;49.636;12.164;2022-10-18T06:37:39;17.42;;;7.72;;
68247;SDS011;55064;49.636;12.164;2022-10-18T06:40:05;16.57;;;8.77;;
68247;SDS011;55064;49.636;12.164;2022-10-18T06:42:31;17.30;;;7.65;;
68247;SDS011;55064;49.636;12.164;2022-10-18T06:44:58;16.40;;;7.87;;
68247;SDS011;55064;49.636;12.164;2022-10-18T06:47:27;16.90;;;8.00;;
68247;SDS011;55064;49.636;12.164;2022-10-18T06:49:54;17.17;;;8.20;;
68247;SDS011;55064;49.636;12.164;2022-10-18T06:52:20;20.20;;;8.53;;
68247;SDS011;55064;49.636;12.164;2022-10-18T06:54:49;17.88;;;8.43;;
68247;SDS011;55064;49.636;12.164;2022-10-18T06:57:18;17.50;;;8.20;;
68247;SDS011;55064;49.636;12.164;2022-10-18T06:59:46;17.15;;;8.35;;
68247;SDS011;55064;49.636;12.164;2022-10-18T07:02:15;15.73;;;7.87;;
68247;SDS011;55064;49.636;12.164;2022-10-18T07:04:41;17.15;;;8.15;;
68247;SDS011;55064;49.636;12.164;2022-10-18T07:07:14;17.43;;;8.70;;
68247;SDS011;55064;49.636;12.164;2022-10-18T07:09:43;14.73;;;7.13;;
68247;SDS011;55064;49.636;12.164;2022-10-18T07:12:14;15.68;;;7.47;;
68247;SDS011;55064;49.636;12.164;2022-10-18T07:14:42;14.00;;;7.57;;
68247;SDS011;55064;49.636;12.164;2022-10-18T07:17:09;16.35;;;8.68;;
68247;SDS011;55064;49.636;12.164;2022-10-18T07:19:36;15.47;;;7.70;;
68247;SDS011;55064;49.636;12.164;2022-10-18T07:22:02;14.33;;;7.53;;
68247;SDS011;55064;49.636;12.164;2022-10-18T07:24:29;14.27;;;7.43;;
68247;SDS011;55064;49.636;12.164;2022-10-18T07:26:59;14.73;;;7.55;;
68247;SDS011;55064;49.636;12.164;2022-10-18T07:29:30;12.68;;;6.82;;
68247;SDS011;55064;49.636;12.164;2022-10-18T07:31:57;16.17;;;7.13;;
68247;SDS011;55064;49.636;12.164;2022-10-18T07:34:23;14.53;;;7.07;;
68247;SDS011;55064;49.636;12.164;2022-10-18T07:36:48;16.30;;;7.77;;
68247;SDS011;55064;49.636;12.164;2022-10-18T07:39:21;17.30;;;7.90;;
68247;SDS011;55064;49.636;12.164;2022-10-18T07:41:49;17.17;;;7.10;;
68247;SDS011;55064;49.636;12.164;2022-10-18T07:44:16;15.90;;;7.60;;
68247;SDS011;55064;49.636;12.164;2022-10-18T07:46:42;16.45;;;7.65;;
68247;SDS011;55064;49.636;12.164;2022-10-18T07:49:07;16.43;;;8.17;;
68247;SDS011;55064;49.636;12.164;2022-10-18T07:51:35;16.87;;;8.20;;
68247;SDS011;55064;49.636;12.164;2022-10-18T07:54:03;14.07;;;7.55;;
68247;SDS011;55064;49.636;12.164;2022-10-18T07:56:28;16.60;;;7.93;;
68247;SDS011;55064;49.636;12.164;2022-10-18T07:58:54;15.20;;;7.30;;
68247;SDS011;55064;49.636;12.164;2022-10-18T08:01:20;14.45;;;7.40;;
68247;SDS011;55064;49.636;12.164;2022-10-18T08:03:47;16.42;;;7.78;;
68247;SDS011;55064;49.636;12.164;2022-10-18T08:06:16;15.73;;;7.72;;
68247;SDS011;55064;49.636;12.164;2022-10-18T08:08:46;17.43;;;8.13;;
68247;SDS011;55064;49.636;12.164;2022-10-18T08:11:15;18.73;;;8.10;;
68247;SDS011;55064;49.636;12.164;2022-10-18T08:13:47;17.05;;;7.85;;
68247;SDS011;55064;49.636;12.164;2022-10-18T08:16:15;17.77;;;8.17;;
68247;SDS011;55064;49.636;12.164;2022-10-18T08:18:42;14.93;;;7.80;;
68247;SDS011;55064;49.636;12.164;2022-10-18T08:21:09;14.90;;;8.20;;
68247;SDS011;55064;49.636;12.164;2022-10-18T08:23:37;16.03;;;8.10;;
68247;SDS011;55064;49.636;12.164;2022-10-18T08:26:09;16.20;;;8.35;;
68247;SDS011;55064;49.636;12.164;2022-10-18T08:28:41;19.63;;;8.80;;
68247;SDS011;55064;49.636;12.164;2022-10-18T08:31:11;18.38;;;8.90;;
68247;SDS011;55064;49.636;12.164;2022-10-18T08:33:44;19.95;;;9.27;;
68247;SDS011;55064;49.636;12.164;2022-10-18T08:36:12;16.80;;;9.07;;
68247;SDS011;55064;49.636;12.164;2022-10-18T08:38:39;15.40;;;8.45;;
68247;SDS011;55064;49.636;12.164;2022-10-18T08:46:45;17.02;;;9.05;;
68247;SDS011;55064;49.636;12.164;2022-10-18T08:49:19;18.67;;;9.23;;
68247;SDS011;55064;49.636;12.164;2022-10-18T08:51:59;20.27;;;10.75;;
68247;SDS011;55064;49.636;12.164;2022-10-18T08:54:37;19.42;;;9.20;;
68247;SDS011;55064;49.636;12.164;2022-10-18T08:57:11;16.17;;;8.50;;
68247;SDS011;55064;49.636;12.164;2022-10-18T08:59:42;16.27;;;8.45;;
68247;SDS011;55064;49.636;12.164;2022-10-18T09:08:29;21.17;;;10.68;;
68247;SDS011;55064;49.636;12.164;2022-10-18T09:10:24;25.13;;;11.57;;
68247;SDS011;55064;49.636;12.164;2022-10-18T09:15:57;25.93;;;12.43;;
68247;SDS011;55064;49.636;12.164;2022-10-18T09:18:34;24.10;;;12.73;;
68247;SDS011;55064;49.636;12.164;2022-10-18T09:21:10;28.90;;;13.00;;
68247;SDS011;55064;49.636;12.164;2022-10-18T09:26:21;26.45;;;13.68;;
68247;SDS011;55064;49.636;12.164;2022-10-18T09:37:27;23.40;;;12.80;;
68247;SDS011;55064;49.636;12.164;2022-10-18T09:40:02;26.88;;;12.77;;
68247;SDS011;55064;49.636;12.164;2022-10-18T09:42:54;25.47;;;12.23;;
68247;SDS011;55064;49.636;12.164;2022-10-18T09:45:34;25.15;;;12.73;;
68247;SDS011;55064;49.636;12.164;2022-10-18T09:48:10;26.65;;;12.38;;
68247;SDS011;55064;49.636;12.164;2022-10-18T09:51:13;23.33;;;12.20;;
68247;SDS011;55064;49.636;12.164;2022-10-18T09:56:41;24.53;;;12.33;;
68247;SDS011;55064;49.636;12.164;2022-10-18T10:02:21;19.15;;;10.85;;
68247;SDS011;55064;49.636;12.164;2022-10-18T10:04:50;19.95;;;10.40;;
68247;SDS011;55064;49.636;12.164;2022-10-18T10:07:23;20.60;;;11.43;;
68247;SDS011;55064;49.636;12.164;2022-10-18T10:12:43;19.40;;;11.20;;
68247;SDS011;55064;49.636;12.164;2022-10-18T10:18:20;19.63;;;10.55;;
68247;SDS011;55064;49.636;12.164;2022-10-18T10:20:44;19.48;;;11.60;;
68247;SDS011;55064;49.636;12.164;2022-10-18T10:23:13;19.27;;;10.80;;
68247;SDS011;55064;49.636;12.164;2022-10-18T10:25:44;22.10;;;11.40;;
68247;SDS011;55064;49.636;12.164;2022-10-18T10:28:17;19.45;;;11.02;;
68247;SDS011;55064;49.636;12.164;2022-10-18T10:30:48;19.52;;;10.65;;
68247;SDS011;55064;49.636;12.164;2022-10-18T10:36:13;21.03;;;9.47;;
68247;SDS011;55064;49.636;12.164;2022-10-18T10:41:38;16.55;;;8.77;;
68247;SDS011;55064;49.636;12.164;2022-10-18T10:44:12;17.80;;;9.00;;
68247;SDS011;55064;49.636;12.164;2022-10-18T10:46:47;16.45;;;8.90;;
68247;SDS011;55064;49.636;12.164;2022-10-18T10:49:22;16.03;;;9.63;;
68247;SDS011;55064;49.636;12.164;2022-10-18T10:51:59;17.58;;;9.05;;
68247;SDS011;55064;49.636;12.164;2022-10-18T10:54:30;17.15;;;9.27;;
68247;SDS011;55064;49.636;12.164;2022-10-18T11:04:45;15.77;;;8.98;;
68247;SDS011;55064;49.636;12.164;2022-10-18T11:15:22;15.27;;;8.57;;
68247;SDS011;55064;49.636;12.164;2022-10-18T11:20:42;15.65;;;8.75;;
68247;SDS011;55064;49.636;12.164;2022-10-18T11:23:11;13.75;;;7.88;;
68247;SDS011;55064;49.636;12.164;2022-10-18T11:42:21;17.80;;;8.60;;
68247;SDS011;55064;49.636;12.164;2022-10-18T12:01:00;13.00;;;6.75;;
68247;SDS011;55064;49.636;12.164;2022-10-18T12:06:18;14.68;;;6.80;;
68247;SDS011;55064;49.636;12.164;2022-10-18T12:08:51;13.77;;;6.97;;
68247;SDS011;55064;49.636;12.164;2022-10-18T12:11:23;9.73;;;5.30;;
68247;SDS011;55064;49.636;12.164;2022-10-18T12:13:53;9.77;;;4.05;;
68247;SDS011;55064;49.636;12.164;2022-10-18T12:16:23;7.97;;;3.67;;
68247;SDS011;55064;49.636;12.164;2022-10-18T12:18:55;9.05;;;3.90;;
68247;SDS011;55064;49.636;12.164;2022-10-18T12:21:24;7.47;;;3.70;;
68247;SDS011;55064;49.636;12.164;2022-10-18T12:23:57;7.97;;;3.85;;
68247;SDS011;55064;49.636;12.164;2022-10-18T12:26:29;9.13;;;3.53;;
68247;SDS011;55064;49.636;12.164;2022-10-18T12:33:55;11.20;;;4.07;;
68247;SDS011;55064;49.636;12.164;2022-10-18T12:39:07;7.33;;;3.60;;
68247;SDS011;55064;49.636;12.164;2022-10-18T12:41:39;8.00;;;3.65;;
68247;SDS011;55064;49.636;12.164;2022-10-18T12:44:05;12.20;;;4.00;;
68247;SDS011;55064;49.636;12.164;2022-10-18T12:49:10;10.93;;;4.20;;
68247;SDS011;55064;49.636;12.164;2022-10-18T12:51:48;13.65;;;4.82;;
68247;SDS011;55064;49.636;12.164;2022-10-18T12:54:18;9.95;;;4.30;;
68247;SDS011;55064;49.636;12.164;2022-10-18T12:56:48;11.67;;;4.60;;
68247;SDS011;55064;49.636;12.164;2022-10-18T13:14:54;9.05;;;5.00;;
68247;SDS011;55064;49.636;12.164;2022-10-18T13:17:55;9.70;;;5.10;;
68247;SDS011;55064;49.636;12.164;2022-10-18T13:20:32;11.25;;;4.80;;
68247;SDS011;55064;49.636;12.164;2022-10-18T13:23:09;11.23;;;4.77;;
68247;SDS011;55064;49.636;12.164;2022-10-18T13:29:08;9.85;;;4.30;;
68247;SDS011;55064;49.636;12.164;2022-10-18T13:39:29;12.57;;;4.95;;
68247;SDS011;55064;49.636;12.164;2022-10-18T14:08:23;10.38;;;5.30;;
68247;SDS011;55064;49.636;12.164;2022-10-18T14:10:58;11.57;;;5.00;;
68247;SDS011;55064;49.636;12.164;2022-10-18T14:13:30;10.55;;;5.80;;
68247;SDS011;55064;49.636;12.164;2022-10-18T14:16:13;10.98;;;5.57;;
68247;SDS011;55064;49.636;12.164;2022-10-18T14:18:47;14.23;;;5.95;;
68247;SDS011;55064;49.636;12.164;2022-10-18T14:21:21;13.55;;;5.72;;
68247;SDS011;55064;49.636;12.164;2022-10-18T14:23:56;10.90;;;5.73;;
68247;SDS011;55064;49.636;12.164;2022-10-18T14:26:26;11.18;;;6.13;;
68247;SDS011;55064;49.636;12.164;2022-10-18T14:29:05;10.07;;;5.50;;
68247;SDS011;55064;49.636;12.164;2022-10-18T14:31:39;11.02;;;6.18;;
68247;SDS011;55064;49.636;12.164;2022-10-18T14:34:09;11.23;;;6.05;;
68247;SDS011;55064;49.636;12.164;2022-10-18T14:36:41;13.60;;;6.33;;
68247;SDS011;55064;49.636;12.164;2022-10-18T14:39:18;12.57;;;6.22;;
68247;SDS011;55064;49.636;12.164;2022-10-18T14:41:49;12.85;;;6.43;;
68247;SDS011;55064;49.636;12.164;2022-10-18T14:49:25;11.00;;;5.47;;
68247;SDS011;55064;49.636;12.164;2022-10-18T14:51:51;11.77;;;5.93;;
68247;SDS011;55064;49.636;12.164;2022-10-18T14:54:22;10.68;;;6.40;;
68247;SDS011;55064;49.636;12.164;2022-10-18T14:57:03;13.50;;;6.43;;
68247;SDS011;55064;49.636;12.164;2022-10-18T14:59:33;12.25;;;6.20;;
68247;SDS011;55064;49.636;12.164;2022-10-18T15:02:15;12.70;;;6.40;;
68247;SDS011;55064;49.636;12.164;2022-10-18T15:04:45;11.27;;;6.30;;
68247;SDS011;55064;49.636;12.164;2022-10-18T15:07:12;11.40;;;6.28;;
68247;SDS011;55064;49.636;12.164;2022-10-18T15:09:42;12.73;;;5.90;;
68247;SDS011;55064;49.636;12.164;2022-10-18T15:12:09;12.23;;;5.88;;
68247;SDS011;55064;49.636;12.164;2022-10-18T15:14:41;14.43;;;6.70;;
68247;SDS011;55064;49.636;12.164;2022-10-18T15:17:11;11.63;;;6.10;;
68247;SDS011;55064;49.636;12.164;2022-10-18T15:19:52;13.18;;;6.63;;
68247;SDS011;55064;49.636;12.164;2022-10-18T15:22:26;11.50;;;6.13;;
68247;SDS011;55064;49.636;12.164;2022-10-18T15:27:30;16.83;;;7.63;;
68247;SDS011;55064;49.636;12.164;2022-10-18T15:30:07;22.10;;;9.30;;
68247;SDS011;55064;49.636;12.164;2022-10-18T15:32:37;23.55;;;12.57;;
68247;SDS011;55064;49.636;12.164;2022-10-18T15:35:16;16.63;;;8.37;;
68247;SDS011;55064;49.636;12.164;2022-10-18T15:37:46;11.48;;;6.50;;
68247;SDS011;55064;49.636;12.164;2022-10-18T15:42:50;11.90;;;7.38;;
68247;SDS011;55064;49.636;12.164;2022-10-18T15:48:01;11.67;;;6.37;;
68247;SDS011;55064;49.636;12.164;2022-10-18T15:58:58;11.70;;;6.10;;
68247;SDS011;55064;49.636;12.164;2022-10-18T16:01:45;11.20;;;5.97;;
68247;SDS011;55064;49.636;12.164;2022-10-18T16:04:29;11.10;;;6.20;;
68247;SDS011;55064;49.636;12.164;2022-10-18T16:07:02;9.10;;;5.45;;
68247;SDS011;55064;49.636;12.164;2022-10-18T16:09:28;11.88;;;6.50;;
68247;SDS011;55064;49.636;12.164;2022-10-18T16:11:56;14.93;;;9.32;;
68247;SDS011;55064;49.636;12.164;2022-10-18T16:14:24;14.03;;;9.70;;
68247;SDS011;55064;49.636;12.164;2022-10-18T16:16:57;11.43;;;6.88;;
68247;SDS011;55064;49.636;12.164;2022-10-18T16:19:26;14.27;;;6.38;;
68247;SDS011;55064;49.636;12.164;2022-10-18T16:21:54;11.82;;;5.85;;
68247;SDS011;55064;49.636;12.164;2022-10-18T16:24:19;13.13;;;6.70;;
68247;SDS011;55064;49.636;12.164;2022-10-18T16:26:48;14.23;;;7.72;;
68247;SDS011;55064;49.636;12.164;2022-10-18T16:29:19;11.70;;;6.28;;
68247;SDS011;55064;49.636;12.164;2022-10-18T16:31:49;13.43;;;7.28;;
68247;SDS011;55064;49.636;12.164;2022-10-18T16:34:19;11.30;;;6.75;;
68247;SDS011;55064;49.636;12.164;2022-10-18T16:36:51;12.07;;;6.23;;
68247;SDS011;55064;49.636;12.164;2022-10-18T16:39:17;14.45;;;8.10;;
68247;SDS011;55064;49.636;12.164;2022-10-18T16:41:44;22.15;;;11.52;;
68247;SDS011;55064;49.636;12.164;2022-10-18T16:44:13;25.80;;;15.02;;
68247;SDS011;55064;49.636;12.164;2022-10-18T16:46:40;26.23;;;14.90;;
68247;SDS011;55064;49.636;12.164;2022-10-18T16:49:11;24.73;;;15.32;;
68247;SDS011;55064;49.636;12.164;2022-10-18T16:51:45;23.55;;;14.25;;
68247;SDS011;55064;49.636;12.164;2022-10-18T16:54:13;24.35;;;14.77;;
68247;SDS011;55064;49.636;12.164;2022-10-18T16:56:43;21.45;;;12.45;;
68247;SDS011;55064;49.636;12.164;2022-10-18T16:59:09;22.70;;;13.53;;
68247;SDS011;55064;49.636;12.164;2022-10-18T17:01:47;22.42;;;13.57;;
68247;SDS011;55064;49.636;12.164;2022-10-18T17:04:13;20.90;;;11.57;;
68247;SDS011;55064;49.636;12.164;2022-10-18T17:06:43;22.95;;;11.73;;
68247;SDS011;55064;49.636;12.164;2022-10-18T17:09:13;23.83;;;14.68;;
68247;SDS011;55064;49.636;12.164;2022-10-18T17:11:43;21.98;;;13.82;;
68247;SDS011;55064;49.636;12.164;2022-10-18T17:14:09;21.20;;;11.23;;
68247;SDS011;55064;49.636;12.164;2022-10-18T17:16:35;21.73;;;12.10;;
68247;SDS011;55064;49.636;12.164;2022-10-18T17:19:02;23.15;;;12.55;;
68247;SDS011;55064;49.636;12.164;2022-10-18T17:21:30;26.13;;;12.27;;
68247;SDS011;55064;49.636;12.164;2022-10-18T17:23:57;19.75;;;11.93;;
68247;SDS011;55064;49.636;12.164;2022-10-18T17:26:30;22.17;;;14.73;;
68247;SDS011;55064;49.636;12.164;2022-10-18T17:29:00;20.75;;;13.10;;
68247;SDS011;55064;49.636;12.164;2022-10-18T17:31:29;21.63;;;12.50;;
68247;SDS011;55064;49.636;12.164;2022-10-18T17:33:56;23.37;;;11.43;;
68247;SDS011;55064;49.636;12.164;2022-10-18T17:36:22;17.52;;;11.10;;
68247;SDS011;55064;49.636;12.164;2022-10-18T17:38:53;16.90;;;11.00;;
68247;SDS011;55064;49.636;12.164;2022-10-18T17:41:22;19.92;;;10.85;;
68247;SDS011;55064;49.636;12.164;2022-10-18T17:43:49;19.10;;;10.30;;
68247;SDS011;55064;49.636;12.164;2022-10-18T17:46:15;15.93;;;9.60;;
68247;SDS011;55064;49.636;12.164;2022-10-18T17:48:43;18.77;;;11.00;;
68247;SDS011;55064;49.636;12.164;2022-10-18T17:51:10;18.58;;;11.18;;
68247;SDS011;55064;49.636;12.164;2022-10-18T17:53:36;18.93;;;10.80;;
68247;SDS011;55064;49.636;12.164;2022-10-18T17:56:04;18.38;;;11.10;;
68247;SDS011;55064;49.636;12.164;2022-10-18T17:58:31;16.02;;;9.80;;
68247;SDS011;55064;49.636;12.164;2022-10-18T18:01:09;18.55;;;10.60;;
68247;SDS011;55064;49.636;12.164;2022-10-18T18:03:36;15.07;;;9.90;;